createdAt,value
2022-11-21T00:01:17.498Z,19.40
2022-11-21T00:03:45.826Z,19.40
2022-11-21T00:06:14.292Z,19.40
2022-11-21T00:08:43.949Z,19.40
2022-11-21T00:11:12.323Z,19.40
2022-11-21T00:13:40.599Z,19.40
2022-11-21T00:16:09.905Z,19.40
2022-11-21T00:18:38.262Z,19.40
2022-11-21T00:21:06.992Z,19.30
2022-11-21T00:23:35.313Z,19.30
2022-11-21T00:26:08.289Z,19.30
2022-11-21T00:28:36.748Z,19.40
2022-11-21T00:31:05.184Z,19.30
2022-11-21T00:33:33.577Z,19.30
2022-11-21T00:36:07.639Z,19.30
2022-11-21T00:38:36.186Z,19.30
2022-11-21T00:41:04.579Z,19.30
2022-11-21T00:43:34.261Z,19.30
2022-11-21T00:46:03.190Z,19.30
2022-11-21T00:48:32.076Z,19.30
2022-11-21T00:51:01.535Z,19.30
2022-11-21T00:53:29.871Z,19.20
2022-11-21T00:55:58.629Z,19.20
2022-11-21T00:58:29.876Z,19.20
2022-11-21T01:01:06.472Z,19.20
2022-11-21T01:03:35.026Z,19.20
2022-11-21T01:06:04.326Z,19.20
2022-11-21T01:08:32.676Z,19.20
2022-11-21T01:11:03.847Z,19.20
2022-11-21T01:13:32.169Z,19.20
2022-11-21T01:16:05.818Z,19.20
2022-11-21T01:18:34.198Z,19.20
2022-11-21T01:21:02.744Z,19.20
2022-11-21T01:23:31.041Z,19.20
2022-11-21T01:26:02.793Z,19.20
2022-11-21T01:28:31.104Z,19.20
2022-11-21T01:31:06.084Z,19.10
2022-11-21T01:33:34.488Z,19.20
2022-11-21T01:36:10.704Z,19.20
2022-11-21T01:38:39.163Z,19.10
2022-11-21T01:41:07.549Z,19.10
2022-11-21T01:43:35.982Z,19.20
2022-11-21T01:46:10.120Z,19.10
2022-11-21T01:48:40.117Z,19.10
2022-11-21T01:51:11.416Z,19.10
2022-11-21T01:53:39.737Z,19.10
2022-11-21T01:56:08.001Z,19.10
2022-11-21T01:58:36.284Z,19.10
2022-11-21T02:01:06.005Z,19.10
2022-11-21T02:03:35.296Z,19.10
2022-11-21T02:06:03.605Z,19.10
2022-11-21T02:08:31.942Z,19.10
2022-11-21T02:11:05.201Z,19.10
2022-11-21T02:13:33.557Z,19.10
2022-11-21T02:16:01.908Z,19.10
2022-11-21T02:18:31.540Z,19.00
2022-11-21T02:21:01.717Z,19.10
2022-11-21T02:23:36.102Z,19.10
2022-11-21T02:26:05.728Z,19.00
2022-11-21T02:28:34.016Z,19.00
2022-11-21T02:31:02.602Z,19.00
2022-11-21T02:33:33.442Z,19.00
2022-11-21T02:36:03.524Z,19.00
2022-11-21T02:38:33.149Z,19.00
2022-11-21T02:41:06.389Z,19.00
2022-11-21T02:43:36.374Z,19.00
2022-11-21T02:46:04.694Z,19.00
2022-11-21T02:48:32.954Z,19.00
2022-11-21T02:51:01.237Z,19.00
2022-11-21T02:53:29.503Z,19.00
2022-11-21T02:55:57.805Z,18.90
2022-11-21T02:58:27.562Z,19.00
2022-11-21T03:00:56.155Z,19.00
2022-11-21T03:03:24.590Z,19.00
2022-11-21T03:05:52.862Z,18.90
2022-11-21T03:08:21.175Z,19.00
2022-11-21T03:10:49.542Z,19.00
2022-11-21T03:13:17.825Z,18.90
2022-11-21T03:15:47.502Z,19.00
2022-11-21T03:18:15.815Z,18.90
2022-11-21T03:20:44.141Z,18.90
2022-11-21T03:23:12.408Z,18.90
2022-11-21T03:25:40.813Z,18.90
2022-11-21T03:28:09.117Z,18.90
2022-11-21T03:30:37.500Z,18.90
2022-11-21T03:33:07.137Z,18.90
2022-11-21T03:35:35.465Z,18.90
2022-11-21T03:38:03.748Z,18.90
2022-11-21T03:40:32.002Z,18.90
2022-11-21T03:43:05.432Z,18.90
2022-11-21T03:45:33.752Z,18.90
2022-11-21T03:48:02.382Z,18.80
2022-11-21T03:50:32.107Z,18.80
2022-11-21T03:53:00.429Z,18.80
2022-11-21T03:55:28.698Z,18.80
2022-11-21T03:57:57.035Z,18.80
2022-11-21T04:00:25.332Z,18.80
2022-11-21T04:02:53.641Z,18.80
2022-11-21T04:05:21.965Z,18.80
2022-11-21T04:07:51.709Z,18.80
2022-11-21T04:10:20.854Z,18.80
2022-11-21T04:12:49.181Z,18.80
2022-11-21T04:15:17.604Z,18.80
2022-11-21T04:17:45.893Z,18.80
2022-11-21T04:20:14.453Z,18.80
2022-11-21T04:22:42.948Z,18.80
2022-11-21T04:25:13.688Z,18.80
2022-11-21T04:27:41.977Z,18.70
2022-11-21T04:30:11.256Z,18.70
2022-11-21T04:32:39.523Z,18.70
2022-11-21T04:35:08.830Z,18.70
2022-11-21T04:37:37.136Z,18.70
2022-11-21T04:40:06.354Z,18.80
2022-11-21T04:42:35.988Z,18.70
2022-11-21T04:45:04.528Z,18.70
2022-11-21T04:47:32.843Z,18.70
2022-11-21T04:50:01.155Z,18.70
2022-11-21T04:52:29.414Z,18.70
2022-11-21T04:54:57.798Z,18.70
2022-11-21T04:57:26.267Z,18.70
2022-11-21T04:59:55.910Z,18.70
2022-11-21T05:02:24.373Z,18.70
2022-11-21T05:04:52.708Z,18.70
2022-11-21T05:07:21.065Z,18.90
2022-11-21T05:09:49.411Z,18.70
2022-11-21T05:12:35.433Z,18.70
2022-11-21T05:15:05.497Z,18.60
2022-11-21T05:17:33.851Z,18.60
2022-11-21T05:20:02.111Z,18.60
2022-11-21T05:22:30.389Z,18.70
2022-11-21T05:24:58.723Z,18.60
2022-11-21T05:27:27.000Z,18.60
2022-11-21T05:29:55.596Z,18.60
2022-11-21T05:32:25.706Z,18.60
2022-11-21T05:34:54.019Z,18.60
2022-11-21T05:37:22.547Z,18.60
2022-11-21T05:39:50.853Z,18.60
2022-11-21T05:42:39.762Z,18.60
2022-11-21T05:45:08.480Z,18.60
2022-11-21T05:47:38.154Z,18.60
2022-11-21T05:50:07.302Z,18.60
2022-11-21T05:52:35.626Z,18.60
2022-11-21T05:55:04.060Z,18.60
2022-11-21T05:57:32.353Z,18.50
2022-11-21T06:00:00.598Z,18.60
2022-11-21T06:02:46.564Z,18.60
2022-11-21T06:05:16.451Z,18.60
2022-11-21T06:07:44.838Z,18.50
2022-11-21T06:10:13.181Z,18.60
2022-11-21T06:12:41.524Z,18.50
2022-11-21T06:15:10.739Z,18.50
2022-11-21T06:17:39.032Z,18.60
2022-11-21T06:20:08.693Z,18.60
2022-11-21T06:22:38.319Z,18.50
2022-11-21T06:25:07.086Z,18.50
2022-11-21T06:27:35.389Z,18.50
2022-11-21T06:30:03.762Z,18.60
2022-11-21T06:32:32.090Z,18.60
2022-11-21T06:35:00.396Z,18.50
2022-11-21T06:37:28.713Z,18.60
2022-11-21T06:39:58.411Z,18.60
2022-11-21T06:42:26.725Z,18.60
2022-11-21T06:44:55.044Z,18.60
2022-11-21T06:47:23.313Z,18.70
2022-11-21T06:49:53.976Z,18.70
2022-11-21T06:52:22.305Z,18.70
2022-11-21T06:54:50.634Z,18.80
2022-11-21T06:57:20.288Z,18.80
2022-11-21T06:59:48.649Z,18.90
2022-11-21T07:02:17.020Z,18.90
2022-11-21T07:04:45.311Z,19.00
2022-11-21T07:07:13.671Z,19.00
2022-11-21T07:09:44.665Z,19.00
2022-11-21T07:12:30.781Z,19.10
2022-11-21T07:15:00.472Z,19.20
2022-11-21T07:17:28.764Z,19.20
2022-11-21T07:19:57.106Z,19.40
2022-11-21T07:22:25.376Z,19.40
2022-11-21T07:24:53.645Z,19.50
2022-11-21T07:27:21.976Z,19.60
2022-11-21T07:29:51.710Z,19.60
2022-11-21T07:32:21.325Z,19.50
2022-11-21T07:34:49.603Z,19.60
2022-11-21T07:37:17.861Z,19.60
2022-11-21T07:39:46.186Z,19.70
2022-11-21T07:42:14.468Z,19.70
2022-11-21T07:44:42.775Z,19.70
2022-11-21T07:47:11.088Z,19.70
2022-11-21T07:49:40.739Z,19.80
2022-11-21T07:52:09.106Z,19.80
2022-11-21T07:54:37.380Z,19.80
2022-11-21T07:57:05.697Z,19.80
2022-11-21T07:59:34.119Z,19.90
2022-11-21T08:02:02.477Z,19.90
2022-11-21T08:04:30.758Z,19.90
2022-11-21T08:07:00.427Z,20.00
2022-11-21T08:09:29.680Z,20.00
2022-11-21T08:11:58.212Z,20.00
2022-11-21T08:14:26.511Z,20.00
2022-11-21T08:16:54.796Z,20.10
2022-11-21T08:19:23.102Z,20.10
2022-11-21T08:21:51.413Z,20.10
2022-11-21T08:24:21.085Z,20.10
2022-11-21T08:26:49.440Z,20.10
2022-11-21T08:29:17.781Z,20.10
2022-11-21T08:31:46.291Z,20.10
2022-11-21T08:34:14.858Z,20.20
2022-11-21T08:36:43.193Z,20.20
2022-11-21T08:39:11.503Z,20.20
2022-11-21T08:41:58.826Z,20.30
2022-11-21T08:44:28.859Z,20.30
2022-11-21T08:46:57.517Z,20.20
2022-11-21T08:49:25.785Z,20.20
2022-11-21T08:51:54.266Z,20.20
2022-11-21T08:54:23.243Z,20.30
2022-11-21T08:56:52.873Z,20.40
2022-11-21T08:59:21.204Z,20.40
2022-11-21T09:01:49.594Z,20.40
2022-11-21T09:04:18.007Z,20.50
2022-11-21T09:06:46.321Z,20.50
2022-11-21T09:09:14.671Z,20.50
2022-11-21T09:11:42.933Z,20.50
2022-11-21T09:14:30.492Z,20.50
2022-11-21T09:17:16.178Z,20.50
2022-11-21T09:19:44.415Z,20.50
2022-11-21T09:22:12.796Z,20.50
2022-11-21T09:24:41.111Z,20.50
2022-11-21T09:27:09.390Z,20.50
2022-11-21T09:29:38.999Z,20.50
2022-11-21T09:32:07.320Z,20.60
2022-11-21T09:34:35.681Z,20.60
2022-11-21T09:37:03.978Z,20.70
2022-11-21T09:39:42.393Z,20.70
2022-11-21T09:42:41.013Z,20.60
2022-11-21T09:45:11.836Z,20.70
2022-11-21T09:47:43.087Z,20.70
2022-11-21T09:50:22.662Z,20.80
2022-11-21T09:52:52.900Z,20.80
2022-11-21T09:55:24.880Z,20.70
2022-11-21T09:57:53.168Z,20.70
2022-11-21T10:00:24.290Z,20.70
2022-11-21T10:02:52.615Z,20.80
2022-11-21T10:05:26.404Z,20.90
2022-11-21T10:07:54.736Z,20.90
2022-11-21T10:10:30.091Z,20.90
2022-11-21T10:13:15.056Z,20.90
2022-11-21T10:15:51.464Z,20.90
2022-11-21T10:18:34.092Z,20.80
2022-11-21T10:21:06.928Z,20.80
2022-11-21T10:23:40.999Z,20.80
2022-11-21T10:26:16.360Z,20.80
2022-11-21T10:28:48.656Z,20.70
2022-11-21T10:31:18.273Z,20.80
2022-11-21T10:33:46.650Z,20.80
2022-11-21T10:36:20.657Z,20.80
2022-11-21T10:38:50.105Z,20.80
2022-11-21T10:41:19.464Z,20.70
2022-11-21T10:44:08.583Z,20.70
2022-11-21T10:46:38.204Z,20.80
2022-11-21T10:49:08.127Z,20.70
2022-11-21T10:51:41.563Z,20.80
2022-11-21T10:54:28.846Z,20.80
2022-11-21T10:56:57.695Z,20.70
2022-11-21T10:59:30.310Z,20.70
2022-11-21T11:02:02.399Z,20.70
2022-11-21T11:04:37.506Z,20.80
2022-11-21T11:07:24.709Z,20.80
2022-11-21T11:09:53.476Z,20.90
2022-11-21T11:12:48.754Z,20.90
2022-11-21T11:15:21.478Z,21.00
2022-11-21T11:17:56.287Z,21.00
2022-11-21T11:20:36.904Z,21.10
2022-11-21T11:23:18.510Z,21.10
2022-11-21T11:25:48.074Z,21.20
2022-11-21T11:28:16.420Z,21.20
2022-11-21T11:30:44.761Z,21.20
2022-11-21T11:33:38.345Z,21.20
2022-11-21T11:36:15.470Z,21.10
2022-11-21T11:38:54.479Z,21.20
2022-11-21T11:42:02.085Z,21.20
2022-11-21T11:44:51.013Z,21.20
2022-11-21T11:47:32.539Z,21.20
2022-11-21T11:50:12.062Z,21.10
2022-11-21T11:52:44.991Z,21.00
2022-11-21T11:55:16.944Z,21.00
2022-11-21T11:57:45.209Z,20.90
2022-11-21T12:00:22.885Z,20.90
2022-11-21T12:02:55.262Z,20.90
2022-11-21T12:05:27.236Z,20.90
2022-11-21T12:11:12.367Z,20.90
2022-11-21T12:13:40.817Z,20.80
2022-11-21T12:16:13.689Z,20.90
2022-11-21T12:18:49.092Z,20.90
2022-11-21T12:21:19.313Z,21.00
2022-11-21T12:23:49.013Z,21.00
2022-11-21T12:26:28.369Z,20.90
2022-11-21T12:29:05.732Z,21.00
2022-11-21T12:31:39.622Z,21.00
2022-11-21T12:34:14.385Z,21.00
2022-11-21T12:36:44.785Z,21.00
2022-11-21T12:39:45.705Z,21.00
2022-11-21T12:42:33.425Z,21.00
2022-11-21T12:45:09.637Z,21.00
2022-11-21T12:48:08.758Z,20.90
2022-11-21T12:50:57.158Z,21.00
2022-11-21T12:53:46.993Z,21.00
2022-11-21T12:56:19.100Z,20.90
2022-11-21T12:58:48.259Z,20.90
2022-11-21T13:01:21.928Z,20.90
2022-11-21T13:03:59.020Z,20.80
2022-11-21T13:06:28.236Z,20.70
2022-11-21T13:08:58.551Z,20.60
2022-11-21T13:11:48.497Z,20.60
2022-11-21T13:14:20.355Z,20.60
2022-11-21T13:16:54.225Z,20.60
2022-11-21T13:19:26.064Z,20.50
2022-11-21T13:21:55.022Z,20.60
2022-11-21T13:25:01.421Z,20.50
2022-11-21T13:27:38.176Z,20.50
2022-11-21T13:30:23.905Z,20.40
2022-11-21T13:32:52.960Z,20.50
2022-11-21T13:36:06.756Z,20.40
2022-11-21T13:39:08.298Z,20.40
2022-11-21T13:42:28.140Z,20.40
2022-11-21T13:44:56.624Z,20.40
2022-11-21T13:47:59.221Z,20.40
2022-11-21T13:50:54.767Z,20.30
2022-11-21T13:53:42.849Z,20.30
2022-11-21T13:56:12.992Z,20.30
2022-11-21T13:58:50.355Z,20.30
2022-11-21T14:01:43.532Z,20.30
2022-11-21T14:04:26.570Z,20.30
2022-11-21T14:06:54.876Z,20.30
2022-11-21T14:09:27.668Z,20.40
2022-11-21T14:11:57.792Z,20.40
2022-11-21T14:14:33.849Z,20.40
2022-11-21T14:17:15.964Z,20.40
2022-11-21T14:19:44.313Z,20.40
2022-11-21T14:22:17.211Z,20.30
2022-11-21T14:24:47.153Z,20.30
2022-11-21T14:27:23.640Z,20.30
2022-11-21T14:29:53.292Z,20.20
2022-11-21T14:32:27.277Z,20.30
2022-11-21T14:35:09.227Z,20.20
2022-11-21T14:37:40.867Z,20.20
2022-11-21T14:40:13.013Z,20.10
2022-11-21T14:42:41.341Z,20.10
2022-11-21T14:45:17.119Z,20.20
2022-11-21T14:47:49.682Z,20.20
2022-11-21T14:50:28.364Z,20.10
2022-11-21T14:52:59.614Z,20.10
2022-11-21T14:55:32.974Z,20.10
2022-11-21T14:58:02.291Z,20.10
2022-11-21T15:03:21.460Z,20.20
2022-11-21T15:06:07.507Z,20.10
2022-11-21T15:09:18.363Z,20.10
2022-11-21T15:11:36.561Z,20.10
2022-11-21T15:14:22.869Z,20.10
2022-11-21T15:16:53.383Z,20.10
2022-11-21T15:19:22.422Z,20.10
2022-11-21T15:21:51.368Z,20.10
2022-11-21T15:24:27.802Z,20.10
2022-11-21T15:26:56.382Z,20.00
2022-11-21T15:29:24.711Z,20.00
2022-11-21T15:32:15.613Z,20.10
2022-11-21T15:34:44.694Z,20.00
2022-11-21T15:37:15.424Z,20.00
2022-11-21T15:39:44.132Z,19.90
2022-11-21T15:42:38.070Z,19.80
2022-11-21T15:45:25.237Z,19.90
2022-11-21T15:47:56.538Z,19.80
2022-11-21T15:50:26.102Z,19.80
2022-11-21T15:52:54.593Z,19.80
2022-11-21T15:55:24.146Z,19.80
2022-11-21T15:57:52.432Z,19.80
2022-11-21T16:00:20.876Z,19.80
2022-11-21T16:02:49.115Z,19.80
2022-11-21T16:05:18.771Z,19.80
2022-11-21T16:07:48.486Z,19.80
2022-11-21T16:10:24.286Z,19.80
2022-11-21T16:12:58.336Z,19.80
2022-11-21T16:15:26.583Z,19.80
2022-11-21T16:17:54.876Z,19.80
2022-11-21T16:20:24.615Z,19.80
2022-11-21T16:22:52.896Z,19.80
2022-11-21T16:25:21.252Z,19.80
2022-11-21T16:27:49.637Z,19.80
2022-11-21T16:30:18.084Z,19.80
2022-11-21T16:32:47.095Z,19.70
2022-11-21T16:35:15.566Z,19.70
2022-11-21T16:37:45.241Z,19.70
2022-11-21T16:40:13.578Z,19.70
2022-11-21T16:42:41.871Z,19.60
2022-11-21T16:45:10.924Z,19.60
2022-11-21T16:47:41.948Z,19.60
2022-11-21T16:50:12.670Z,19.60
2022-11-21T16:52:40.963Z,19.60
2022-11-21T16:55:10.828Z,19.70
2022-11-21T16:57:39.145Z,19.60
2022-11-21T17:00:11.161Z,19.60
2022-11-21T17:02:39.720Z,19.60
2022-11-21T17:05:08.528Z,19.60
2022-11-21T17:07:36.874Z,19.60
2022-11-21T17:10:05.683Z,19.60
2022-11-21T17:12:38.955Z,19.70
2022-11-21T17:15:09.060Z,19.70
2022-11-21T17:17:37.586Z,19.70
2022-11-21T17:20:06.840Z,19.80
2022-11-21T17:22:35.354Z,19.80
2022-11-21T17:25:03.619Z,19.80
2022-11-21T17:27:31.953Z,19.80
2022-11-21T17:30:01.659Z,19.80
2022-11-21T17:32:29.967Z,19.90
2022-11-21T17:34:58.421Z,19.90
2022-11-21T17:37:26.699Z,19.90
2022-11-21T17:39:54.991Z,20.00
2022-11-21T17:42:23.962Z,20.00
2022-11-21T17:44:52.291Z,20.00
2022-11-21T17:47:21.974Z,20.00
2022-11-21T17:49:50.231Z,20.00
2022-11-21T17:52:18.551Z,20.10
2022-11-21T17:54:47.071Z,20.10
2022-11-21T17:57:15.549Z,20.10
2022-11-21T17:59:45.102Z,20.10
2022-11-21T18:02:13.483Z,20.10
2022-11-21T18:04:43.152Z,20.20
2022-11-21T18:07:12.540Z,20.20
2022-11-21T18:09:40.887Z,20.20
2022-11-21T18:12:09.212Z,20.20
2022-11-21T18:14:37.465Z,20.20
2022-11-21T18:17:05.811Z,20.30
2022-11-21T18:19:34.084Z,20.30
2022-11-21T18:22:03.810Z,20.30
2022-11-21T18:24:32.251Z,20.40
2022-11-21T18:27:00.685Z,20.40
2022-11-21T18:29:36.310Z,20.40
2022-11-21T18:32:06.575Z,20.40
2022-11-21T18:34:35.000Z,20.40
2022-11-21T18:37:04.708Z,20.50
2022-11-21T18:39:33.193Z,20.50
2022-11-21T18:42:01.796Z,20.50
2022-11-21T18:44:30.099Z,20.50
2022-11-21T18:46:58.896Z,20.60
2022-11-21T18:49:27.647Z,20.60
2022-11-21T18:51:56.339Z,20.60
2022-11-21T18:54:25.999Z,20.60
2022-11-21T18:56:54.324Z,20.60
2022-11-21T18:59:22.584Z,20.70
2022-11-21T19:01:50.925Z,20.70
2022-11-21T19:04:19.432Z,20.70
2022-11-21T19:06:47.703Z,20.70
2022-11-21T19:09:15.954Z,20.70
2022-11-21T19:11:45.614Z,20.70
2022-11-21T19:14:14.086Z,20.70
2022-11-21T19:16:42.421Z,20.80
2022-11-21T19:21:59.147Z,20.80
2022-11-21T19:24:27.445Z,20.80
2022-11-21T19:26:57.116Z,20.80
2022-11-21T19:29:25.500Z,20.80
2022-11-21T19:31:55.800Z,20.90
2022-11-21T19:34:24.098Z,20.90
2022-11-21T19:36:52.991Z,21.00
2022-11-21T19:39:21.277Z,21.00
2022-11-21T19:41:49.772Z,21.00
2022-11-21T19:44:19.777Z,21.00
2022-11-21T19:46:49.475Z,20.90
2022-11-21T19:49:19.324Z,21.00
2022-11-21T19:51:47.704Z,21.10
2022-11-21T19:54:16.944Z,21.10
2022-11-21T19:56:45.245Z,21.10
2022-11-21T19:59:14.451Z,21.10
2022-11-21T20:01:49.511Z,21.30
2022-11-21T20:04:20.625Z,21.30
2022-11-21T20:06:48.989Z,21.30
2022-11-21T20:09:18.427Z,21.20
2022-11-21T20:11:47.673Z,21.10
2022-11-21T20:14:21.433Z,21.20
2022-11-21T20:16:52.762Z,21.10
2022-11-21T20:19:22.568Z,21.20
2022-11-21T20:21:51.100Z,21.20
2022-11-21T20:24:19.424Z,21.30
2022-11-21T20:26:47.770Z,21.40
2022-11-21T20:29:16.244Z,21.40
2022-11-21T20:31:45.136Z,21.40
2022-11-21T20:34:15.996Z,21.40
2022-11-21T20:36:45.507Z,21.50
2022-11-21T20:39:14.746Z,21.50
2022-11-21T20:41:43.041Z,21.50
2022-11-21T20:45:07.217Z,21.50
2022-11-21T20:47:02.460Z,21.40
2022-11-21T20:49:32.357Z,21.40
2022-11-21T20:54:49.197Z,21.40
2022-11-21T20:57:17.524Z,21.40
2022-11-21T20:59:45.776Z,21.40
2022-11-21T21:02:14.699Z,21.40
2022-11-21T21:04:44.389Z,21.30
2022-11-21T21:07:12.742Z,21.20
2022-11-21T21:09:41.073Z,21.20
2022-11-21T21:12:09.402Z,21.20
2022-11-21T21:14:37.698Z,21.10
2022-11-21T21:17:06.001Z,21.10
2022-11-21T21:19:34.362Z,21.10
2022-11-21T21:22:04.836Z,21.10
2022-11-21T21:24:33.155Z,21.10
2022-11-21T21:27:01.454Z,21.10
2022-11-21T21:29:30.226Z,21.00
2022-11-21T21:31:58.771Z,21.00
2022-11-21T21:34:27.157Z,21.00
2022-11-21T21:36:55.607Z,21.00
2022-11-21T21:39:25.355Z,21.00
2022-11-21T21:41:53.650Z,21.00
2022-11-21T21:44:24.163Z,21.00
2022-11-21T21:46:54.247Z,21.00
2022-11-21T21:49:23.930Z,20.90
2022-11-21T21:51:52.188Z,20.90
2022-11-21T21:54:21.144Z,21.00
2022-11-21T21:56:50.847Z,20.90
2022-11-21T21:59:19.728Z,20.90
2022-11-21T22:01:49.080Z,20.90
2022-11-21T22:04:17.494Z,21.00
2022-11-21T22:06:46.001Z,20.90
2022-11-21T22:09:14.348Z,20.90
2022-11-21T22:11:42.626Z,20.90
2022-11-21T22:14:13.922Z,20.80
2022-11-21T22:16:42.365Z,20.90
2022-11-21T22:19:10.675Z,20.90
2022-11-21T22:21:39.379Z,20.80
2022-11-21T22:24:28.027Z,20.80
2022-11-21T22:26:56.466Z,20.90
2022-11-21T22:29:26.158Z,20.90
2022-11-21T22:31:54.452Z,20.80
2022-11-21T22:34:22.921Z,20.80
2022-11-21T22:36:51.253Z,20.80
2022-11-21T22:39:20.018Z,20.80
2022-11-21T22:41:48.434Z,20.80
2022-11-21T22:44:16.717Z,20.90
2022-11-21T22:46:46.407Z,20.90
2022-11-21T22:49:14.710Z,21.00
2022-11-21T22:51:43.008Z,20.90
2022-11-21T22:54:12.536Z,20.90
2022-11-21T22:56:40.854Z,20.90
2022-11-21T22:59:09.178Z,21.00
2022-11-21T23:01:37.465Z,21.00
2022-11-21T23:04:07.203Z,21.00
2022-11-21T23:06:35.535Z,21.00
2022-11-21T23:09:03.860Z,21.00
2022-11-21T23:11:37.782Z,21.00
2022-11-21T23:14:09.039Z,21.00
2022-11-21T23:16:37.409Z,21.00
2022-11-21T23:19:07.100Z,21.00
2022-11-21T23:21:35.367Z,21.00
2022-11-21T23:24:03.687Z,21.00
2022-11-21T23:26:32.037Z,21.00
2022-11-21T23:29:03.783Z,20.90
2022-11-21T23:31:36.453Z,20.90
2022-11-21T23:34:04.768Z,20.80
2022-11-21T23:36:34.758Z,20.80
2022-11-21T23:39:03.087Z,20.80
2022-11-21T23:41:31.369Z,20.80
2022-11-21T23:44:00.193Z,20.70
2022-11-21T23:46:28.513Z,20.70
2022-11-21T23:48:57.089Z,20.70
2022-11-21T23:51:25.514Z,20.70
2022-11-21T23:53:57.333Z,20.70
2022-11-21T23:56:25.670Z,20.70
2022-11-21T23:58:53.981Z,20.70
